Time,TemperatureF,DewpointF,PressureIn,WindDirection,WindDirectionDegrees,WindSpeedMPH,WindSpeedGustMPH,Humidity,HourlyPrecipIn,Conditions,Clouds,dailyrainin,SoftwareType,DateUTC
2013-06-25 00:01:00,56.0,55.0,-100.00,WNW,289,0.0,0.0,97,0.00,,,0.18,,2013-06-25 06:01:00,
2013-06-25 00:21:00,56.0,56.0,-100.00,NE,41,1.0,2.0,97,0.00,,,0.18,,2013-06-25 06:21:00,
2013-06-25 00:33:00,56.0,55.0,-100.00,North,357,0.0,1.0,97,0.00,,,0.18,,2013-06-25 06:33:00,
2013-06-25 00:43:00,56.0,55.0,-100.00,WSW,240,0.0,1.0,97,0.00,,,0.18,,2013-06-25 06:43:00,
2013-06-25 00:52:00,56.0,55.0,-100.00,WSW,240,0.0,1.0,97,0.00,,,0.18,,2013-06-25 06:52:00,
2013-06-25 01:02:00,56.0,55.0,-100.00,ENE,76,1.0,2.0,97,0.00,,,0.18,,2013-06-25 07:02:00,
2013-06-25 01:22:00,57.0,56.0,-100.00,ESE,107,1.0,2.0,96,0.00,,,0.18,,2013-06-25 07:22:00,
2013-06-25 01:33:00,56.0,55.0,-100.00,North,353,0.0,1.0,96,0.00,,,0.18,,2013-06-25 07:33:00,
2013-06-25 01:43:00,56.0,55.0,-100.00,WNW,291,0.0,0.0,96,0.00,,,0.18,,2013-06-25 07:43:00,
2013-06-25 02:01:00,56.0,55.0,-100.00,WNW,284,0.0,0.0,96,0.00,,,0.18,,2013-06-25 08:01:00,
2013-06-25 02:21:00,56.0,55.0,-100.00,ESE,102,2.0,3.0,96,0.00,,,0.18,,2013-06-25 08:21:00,
2013-06-25 02:33:00,56.0,54.0,-100.00,WSW,247,0.0,0.0,96,0.00,,,0.18,,2013-06-25 08:33:00,
2013-06-25 03:01:00,56.0,54.0,-100.00,NW,313,0.0,1.0,97,0.00,,,0.17,,2013-06-25 09:01:00,
2013-06-25 03:12:00,55.0,54.0,-100.00,SSE,150,2.0,3.0,97,0.00,,,0.17,,2013-06-25 09:12:00,
2013-06-25 03:21:00,55.0,54.0,-100.00,SSE,150,2.0,3.0,97,0.00,,,0.17,,2013-06-25 09:21:00,
2013-06-25 04:01:00,55.0,54.0,-100.00,SSE,167,0.0,1.0,97,0.00,,,0.16,,2013-06-25 10:01:00,
2013-06-25 04:21:00,54.0,54.0,-100.00,NNW,332,0.0,1.0,97,0.00,,,0.16,,2013-06-25 10:21:00,
2013-06-25 04:33:00,55.0,54.0,-100.00,South,175,0.0,1.0,97,0.00,,,0.16,,2013-06-25 10:33:00,
2013-06-25 04:42:00,55.0,54.0,-100.00,South,182,0.0,0.0,97,0.00,,,0.15,,2013-06-25 10:42:00,
2013-06-25 04:52:00,55.0,54.0,-100.00,South,182,0.0,0.0,97,0.00,,,0.15,,2013-06-25 10:52:00,
2013-06-25 05:01:00,55.0,54.0,-100.00,SE,138,1.0,2.0,98,0.00,,,0.15,,2013-06-25 11:01:00,
2013-06-25 05:11:00,55.0,54.0,-100.00,East,83,0.0,1.0,98,0.00,,,0.15,,2013-06-25 11:11:00,
2013-06-25 05:34:00,54.0,54.0,-100.00,ESE,113,0.0,1.0,98,0.02,,,0.17,,2013-06-25 11:34:00,
2013-06-25 05:43:00,54.0,54.0,-100.00,NNW,335,1.0,1.0,98,0.00,,,0.17,,2013-06-25 11:43:00,
2013-06-25 06:01:00,54.0,54.0,-100.00,NNW,347,0.0,0.0,98,0.00,,,0.17,,2013-06-25 12:01:00,
2013-06-25 06:11:00,54.0,54.0,-100.00,NNW,347,0.0,0.0,98,0.00,,,0.17,,2013-06-25 12:11:00,
2013-06-25 06:22:00,54.0,54.0,-100.00,South,169,0.0,0.0,99,0.00,,,0.17,,2013-06-25 12:22:00,
2013-06-25 06:43:00,54.0,54.0,-100.00,SE,144,1.0,1.0,99,0.00,,,0.17,,2013-06-25 12:43:00,
2013-06-25 07:01:00,54.0,53.0,-100.00,SSW,193,0.0,0.0,99,0.00,,,0.17,,2013-06-25 13:01:00,
2013-06-25 07:22:00,53.0,53.0,-100.00,SSE,157,2.0,2.0,99,0.00,,,0.17,,2013-06-25 13:22:00,
2013-06-25 07:34:00,53.0,53.0,-100.00,SSE,154,0.0,1.0,99,0.00,,,0.17,,2013-06-25 13:34:00,
2013-06-25 07:53:00,54.0,53.0,-100.00,North,357,0.0,0.0,99,0.00,,,0.17,,2013-06-25 13:53:00,
2013-06-25 08:11:00,54.0,54.0,-100.00,NW,306,0.0,1.0,99,0.00,,,0.17,,2013-06-25 14:11:00,
2013-06-25 08:22:00,55.0,55.0,-100.00,NNE,16,0.0,0.0,99,0.00,,,0.17,,2013-06-25 14:22:00,
2013-06-25 08:34:00,55.0,55.0,-100.00,NNE,16,0.0,0.0,99,0.00,,,0.17,,2013-06-25 14:34:00,
2013-06-25 09:01:00,56.0,56.0,-100.00,NNW,339,0.0,1.0,98,0.00,,,0.17,,2013-06-25 15:01:00,
2013-06-25 09:22:00,58.0,57.0,-100.00,WNW,296,1.0,2.0,97,0.00,,,0.17,,2013-06-25 15:22:00,
2013-06-25 10:03:00,62.0,56.0,-100.00,South,181,2.0,4.0,83,0.00,,,0.17,,2013-06-25 16:03:00,
2013-06-25 10:23:00,62.0,57.0,-100.00,SSW,192,2.0,6.0,85,0.00,,,0.17,,2013-06-25 16:23:00,
2013-06-25 10:34:00,61.0,57.0,-100.00,SSW,209,2.0,4.0,87,0.00,,,0.17,,2013-06-25 16:34:00,
2013-06-25 10:44:00,61.0,57.0,-100.00,WSW,243,2.0,3.0,88,0.00,,,0.18,,2013-06-25 16:44:00,
2013-06-25 10:52:00,61.0,57.0,-100.00,WSW,243,2.0,3.0,88,0.00,,,0.18,,2013-06-25 16:52:00,
2013-06-25 11:01:00,61.0,57.0,-100.00,WSW,243,2.0,3.0,88,0.00,,,0.18,,2013-06-25 17:01:00,
2013-06-25 11:11:00,61.0,57.0,-100.00,WSW,243,2.0,3.0,88,0.00,,,0.18,,2013-06-25 17:11:00,
2013-06-25 11:22:00,59.0,56.0,-100.00,SSE,152,2.0,3.0,91,0.00,,,0.22,,2013-06-25 17:22:00,
2013-06-25 11:44:00,60.0,57.0,-100.00,SSE,158,3.0,6.0,91,0.00,,,0.22,,2013-06-25 17:44:00,
2013-06-25 11:53:00,60.0,57.0,-100.00,SSE,158,3.0,6.0,91,0.00,,,0.22,,2013-06-25 17:53:00,
2013-06-25 12:02:00,61.0,57.0,-100.00,SSE,158,6.0,10.0,88,0.00,,,0.22,,2013-06-25 18:02:00,
2013-06-25 12:22:00,61.0,56.0,-100.00,SSE,155,5.0,6.0,85,0.00,,,0.22,,2013-06-25 18:22:00,
2013-06-25 12:34:00,60.0,57.0,-100.00,SSE,161,3.0,5.0,89,0.28,,,0.26,,2013-06-25 18:34:00,
2013-06-25 12:44:00,58.0,57.0,-100.00,SSE,147,2.0,4.0,95,0.00,,,0.37,,2013-06-25 18:44:00,
2013-06-25 13:01:00,59.0,58.0,-100.00,North,6,1.0,2.0,97,0.00,,,0.37,,2013-06-25 19:01:00,
2013-06-25 13:22:00,59.0,58.0,-100.00,NNE,16,0.0,1.0,97,0.00,,,0.37,,2013-06-25 19:22:00,
2013-06-25 13:44:00,59.0,58.0,-100.00,SSE,147,1.0,2.0,97,0.02,,,0.39,,2013-06-25 19:44:00,
2013-06-25 14:01:00,58.0,57.0,-100.00,SSE,151,1.0,3.0,97,0.00,,,0.53,,2013-06-25 20:01:00,
2013-06-25 14:11:00,58.0,57.0,-100.00,SSE,151,1.0,3.0,97,0.00,,,0.53,,2013-06-25 20:11:00,
2013-06-25 14:33:00,58.0,57.0,-100.00,South,172,3.0,7.0,97,0.00,,,0.55,,2013-06-25 20:33:00,
2013-06-25 14:52:00,58.0,57.0,-100.00,South,169,4.0,9.0,96,0.00,,,0.56,,2013-06-25 20:52:00,
2013-06-25 15:01:00,58.0,57.0,-100.00,South,169,4.0,7.0,96,0.01,,,0.56,,2013-06-25 21:01:00,
2013-06-25 15:11:00,58.0,57.0,-100.00,SSW,200,2.0,6.0,96,0.01,,,0.57,,2013-06-25 21:11:00,
2013-06-25 15:22:00,58.0,57.0,-100.00,SSW,200,2.0,6.0,96,0.01,,,0.57,,2013-06-25 21:22:00,
2013-06-25 15:33:00,59.0,58.0,-100.00,South,174,3.0,6.0,96,0.00,,,0.57,,2013-06-25 21:33:00,
2013-06-25 15:43:00,59.0,58.0,-100.00,South,174,3.0,6.0,96,0.00,,,0.57,,2013-06-25 21:43:00,
2013-06-25 15:53:00,59.0,58.0,-100.00,South,174,3.0,6.0,96,0.00,,,0.57,,2013-06-25 21:53:00,
2013-06-25 16:01:00,59.0,58.0,-100.00,SW,217,4.0,6.0,95,0.00,,,0.55,,2013-06-25 22:01:00,
2013-06-25 16:11:00,59.0,58.0,-100.00,ESE,123,1.0,2.0,95,0.04,,,0.54,,2013-06-25 22:11:00,
2013-06-25 16:22:00,59.0,58.0,-100.00,ESE,123,1.0,2.0,95,0.04,,,0.54,,2013-06-25 22:22:00,
2013-06-25 16:33:00,58.0,57.0,-100.00,ESE,106,1.0,3.0,96,0.04,,,0.59,,2013-06-25 22:33:00,
2013-06-25 16:42:00,59.0,58.0,-100.00,WNW,289,1.0,1.0,97,0.00,,,0.60,,2013-06-25 22:42:00,
2013-06-25 16:52:00,59.0,58.0,-100.00,WNW,289,1.0,1.0,97,0.00,,,0.60,,2013-06-25 22:52:00,
2013-06-25 17:01:00,58.0,57.0,-100.00,WNW,302,1.0,4.0,97,0.02,,,0.61,,2013-06-25 23:01:00,
2013-06-25 17:11:00,58.0,57.0,-100.00,WNW,302,1.0,4.0,97,0.02,,,0.61,,2013-06-25 23:11:00,
2013-06-25 17:22:00,58.0,58.0,-100.00,NW,315,1.0,2.0,97,0.03,,,0.64,,2013-06-25 23:22:00,
2013-06-25 17:34:00,59.0,58.0,-100.00,South,189,0.0,3.0,97,0.04,,,0.67,,2013-06-25 23:34:00,
2013-06-25 17:43:00,58.0,58.0,-100.00,SSE,164,3.0,6.0,97,0.02,,,0.67,,2013-06-25 23:43:00,
2013-06-25 17:52:00,58.0,58.0,-100.00,SSE,164,3.0,6.0,97,0.02,,,0.67,,2013-06-25 23:52:00,
2013-06-25 19:33:00,59.0,58.0,-100.00,NW,319,0.0,0.0,97,0.00,,,0.70,,2013-06-26 01:33:00,
2013-06-25 19:43:00,59.0,58.0,-100.00,NE,40,0.0,0.0,96,0.00,,,0.69,,2013-06-26 01:43:00,
2013-06-25 19:53:00,59.0,58.0,-100.00,NE,40,0.0,0.0,96,0.00,,,0.69,,2013-06-26 01:53:00,
2013-06-25 20:01:00,58.0,57.0,-100.00,WSW,257,0.0,0.0,95,0.00,,,0.68,,2013-06-26 02:01:00,
2013-06-25 20:11:00,58.0,57.0,-100.00,WSW,257,0.0,0.0,95,0.00,,,0.68,,2013-06-26 02:11:00,
2013-06-25 20:22:00,59.0,57.0,-100.00,North,350,0.0,0.0,95,0.00,,,0.67,,2013-06-26 02:22:00,
2013-06-25 20:34:00,59.0,58.0,-100.00,NE,35,0.0,0.0,96,0.00,,,0.67,,2013-06-26 02:34:00,
2013-06-25 20:43:00,58.0,57.0,-100.00,SSE,165,0.0,0.0,95,0.00,,,0.67,,2013-06-26 02:43:00,
2013-06-25 20:53:00,58.0,57.0,-100.00,SSE,165,0.0,0.0,95,0.00,,,0.67,,2013-06-26 02:53:00,
2013-06-25 21:01:00,57.0,56.0,-100.00,NNW,343,0.0,0.0,95,0.00,,,0.67,,2013-06-26 03:01:00,
2013-06-25 21:11:00,58.0,56.0,-100.00,SSE,154,0.0,0.0,96,0.00,,,0.67,,2013-06-26 03:11:00,
2013-06-25 21:22:00,58.0,56.0,-100.00,SSE,154,0.0,0.0,96,0.00,,,0.67,,2013-06-26 03:22:00,
2013-06-25 21:33:00,57.0,56.0,-100.00,WNW,294,0.0,0.0,97,0.00,,,0.67,,2013-06-26 03:33:00,
2013-06-25 21:43:00,57.0,56.0,-100.00,SSE,157,0.0,0.0,97,0.00,,,0.67,,2013-06-26 03:43:00,
2013-06-25 21:52:00,57.0,56.0,-100.00,SSE,157,0.0,0.0,97,0.00,,,0.67,,2013-06-26 03:52:00,
2013-06-25 22:01:00,57.0,56.0,-100.00,West,272,0.0,0.0,97,0.00,,,0.67,,2013-06-26 04:01:00,
2013-06-25 22:12:00,57.0,56.0,-100.00,SW,222,0.0,0.0,98,0.00,,,0.67,,2013-06-26 04:12:00,
2013-06-25 22:22:00,57.0,56.0,-100.00,SW,222,0.0,0.0,98,0.00,,,0.67,,2013-06-26 04:22:00,
2013-06-25 22:33:00,57.0,56.0,-100.00,SE,145,0.0,0.0,98,0.00,,,0.67,,2013-06-26 04:33:00,
2013-06-25 22:43:00,57.0,56.0,-100.00,South,178,0.0,0.0,98,0.00,,,0.67,,2013-06-26 04:43:00,
2013-06-25 22:53:00,57.0,56.0,-100.00,South,178,0.0,0.0,98,0.00,,,0.67,,2013-06-26 04:53:00,
2013-06-25 23:02:00,56.0,56.0,-100.00,NNE,32,0.0,0.0,98,0.00,,,0.67,,2013-06-26 05:02:00,
2013-06-25 23:11:00,56.0,56.0,-100.00,SSE,164,0.0,0.0,98,0.00,,,0.67,,2013-06-26 05:11:00,
2013-06-25 23:33:00,56.0,56.0,-100.00,NW,316,0.0,0.0,98,0.00,,,0.67,,2013-06-26 05:33:00,
2013-06-25 23:43:00,56.0,55.0,-100.00,North,11,0.0,0.0,98,0.00,,,0.67,,2013-06-26 05:43:00,
2013-06-25 23:52:00,56.0,55.0,-100.00,North,11,0.0,0.0,98,0.00,,,0.67,,2013-06-26 05:52:00,